Terminal Aerodrome Forecast
Issued by NWS Shreveport, LA

Home | Current Version | Previous Version | Text Only | Print | Product List | Glossary On
Versions: 1 2 3 4 5 6 7 8 9 10 11 12 13 14 15
000
FTUS44 KSHV 021100 RRA
TAFGGG
TAF
KGGG 021148Z 0212/0312 02005KT 3SM -RA BR OVC003
     FM021400 06005KT 2SM -DZ BR OVC004
     FM030000 05003KT 1/2SM FG OVC001
     FM030700 12004KT 1/2SM FG OVC001=

USA.gov is the U.S. government's official web portal to all federal, state and local government web resources and services.